Erikoussa — SVGV — position and weather

sailwx.info

Track history (hours):
 
Tides and Currents Weather Stations Pressure Air Temp Water Temp Dewpoint Dewpoint Depression Visibility Wind Speed Wind Dir Waves Ship Positions

Erikoussa

Last reported at 2018-Jun-19 02:20 UTC. Time now 2018-Jun-23 14:16 UTC.
Position N 35°50' W 008°57'.

Length 229 m; draft 12.3 m.

Type: Tanker. MMSI: 237928000.

Date/timePositionNaut miles runAvg speedWind from/ knotsBaromVisibWave heightAir tempDewpointWater temp
2018-Jun-19 02:20N 35°50' W 008°57'513.7
2018-Jun-19 01:57N 35°50' W 008°51'613.7
2018-Jun-19 01:29N 35°51' W 008°43'713.7
2018-Jun-19 00:59N 35°53' W 008°35'4713.8
2018-Jun-18 21:35N 35°56' W 007°37'613.7
2018-Jun-18 21:09N 35°57' W 007°29'413.5
2018-Jun-18 20:53N 35°57' W 007°25'8913.2
2018-Jun-18 14:07N 35°58' W 005°35'213.9
2018-Jun-18 14:00N 35°59' W 005°33'713.3
2018-Jun-18 13:30N 36°01' W 005°25'612.2
2018-Jun-18 13:00N 36°05' W 005°19'2 3.6
2018-Jun-18 12:30N 36°06' W 005°18'3 4.4
2018-Jun-18 11:56N 36°07' W 005°15'19013.0
2018-Jun-17 21:18N 36°05' W 001°19'512.7
2018-Jun-17 20:57N 36°05' W 001°13'612.7
2018-Jun-17 20:29N 36°05' W 001°06'612.9
2018-Jun-17 20:00N 36°05' W 000°58'613.3
2018-Jun-17 19:30N 36°05' W 000°50'713.7
2018-Jun-17 19:00N 36°05' W 000°42'713.8
2018-Jun-17 18:30N 36°05' W 000°33'713.3
2018-Jun-17 18:01N 36°04' W 000°25'612.7
2018-Jun-17 17:30N 35°59' W 000°21'713.3
2018-Jun-17 17:00N 35°53' W 000°16'3 0.1
2018-Jun-15 17:02N 35°51' W 000°17'0 3.1
2018-Jun-15 17:00N 35°51' W 000°17'1 2.3
2018-Jun-15 16:30N 35°51' W 000°16'1 2.2
2018-Jun-15 16:00N 35°51' W 000°14'2 4.6
2018-Jun-15 15:29N 35°53' W 000°13'0 0.9
2018-Jun-15 15:00N 35°53' W 000°13'0 0.5
2018-Jun-15 14:29N 35°53' W 000°13'0 0.5
2018-Jun-15 13:39N 35°53' W 000°13'0 0.5
2018-Jun-15 13:28N 35°54' W 000°13'0 0.5
2018-Jun-15 13:00N 35°54' W 000°13'1 0.4
2018-Jun-15 11:46N 35°54' W 000°13'0 0.2
2018-Jun-15 11:23N 35°54' W 000°13'0 0.8
2018-Jun-15 10:46N 35°54' W 000°13'1 4.3
2018-Jun-15 10:30N 35°55' W 000°12'811.4
2018-Jun-15 09:47N 36°02' W 000°06'1 4.1
2018-Jun-15 09:28N 36°03' W 000°05'2 0.8
2018-Jun-15 07:03N 36°01' W 000°07'1 0.8
2018-Jun-15 05:46N 36°01' W 000°08'0 0.8
2018-Jun-15 05:30N 36°01' W 000°08'1 0.7
2018-Jun-15 04:24N 36°00' W 000°09'2 0.7
2018-Jun-15 00:56N 35°59' W 000°11'1 0.5
2018-Jun-14 22:44N 35°58' W 000°12'0 0.6
2018-Jun-14 22:30N 35°58' W 000°12'0 0.5
2018-Jun-14 21:37N 35°58' W 000°13'0 0.4
2018-Jun-14 21:30N 35°58' W 000°13'0 0.4
2018-Jun-14 20:32N 35°57' W 000°13'0 0.3
2018-Jun-14 20:14N 35°57' W 000°13'0 0.1
2018-Jun-14 19:52N 35°57' W 000°13'0 0.1
2018-Jun-14 19:20N 35°57' W 000°13'7 0.4
2018-Jun-14 03:30N 36°04' W 000°10'6 1.4
2018-Jun-13 23:30N 36°01' W 000°16'1 1.5
2018-Jun-13 23:00N 36°01' W 000°17'2 3.4
2018-Jun-13 22:29N 35°59' W 000°17'7 7.7
2018-Jun-13 21:34N 35°52' W 000°14'0 4.9
2018-Jun-13 21:30N 35°53' W 000°14'4 7.6
2018-Jun-13 21:00N 35°56' W 000°12'4 7.8
2018-Jun-13 20:30N 35°60' W 000°10'4 7.2
2018-Jun-13 20:00N 36°03' W 000°08'3 6.2
2018-Jun-13 19:30N 36°06' W 000°06'610.6
2018-Jun-13 18:59N 36°11' W 000°04'610.6
2018-Jun-13 18:24N 36°17' W 000°02'410.5
2018-Jun-13 17:59N 36°21' E 000°01'510.6
2018-Jun-13 17:29N 36°24' E 000°06'610.8
2018-Jun-13 16:58N 36°27' E 000°12'510.8
2018-Jun-13 16:30N 36°29' E 000°18'510.8
2018-Jun-13 16:00N 36°32' E 000°23'510.6
2018-Jun-13 15:30N 36°35' E 000°29'610.7
2018-Jun-13 14:55N 36°38' E 000°35'1210.8
2018-Jun-13 13:48N 36°45' E 000°48'310.7
2018-Jun-13 13:30N 36°47' E 000°51'611.9
2018-Jun-13 13:00N 36°50' E 000°57'15011.2
2018-Jun-12 23:36N 37°13' E 004°03'211.2
2018-Jun-12 23:23N 37°13' E 004°06'411.0
2018-Jun-12 23:00N 37°14' E 004°11'37010.3
2018-Jun-11 11:00N 37°10' E 011°55'511.1
2018-Jun-11 10:30N 37°08' E 012°01'711.0
2018-Jun-11 09:54N 37°05' E 012°09'410.9
2018-Jun-11 09:30N 37°03' E 012°14'611.1
2018-Jun-11 09:00N 37°00' E 012°20'611.1
2018-Jun-11 08:29N 36°58' E 012°26'511.2
2018-Jun-11 08:00N 36°56' E 012°32'611.4
2018-Jun-11 07:30N 36°53' E 012°39'611.4
2018-Jun-11 07:00N 36°51' E 012°45'611.5
2018-Jun-11 06:31N 36°48' E 012°51'611.6
2018-Jun-11 06:00N 36°45' E 012°58'104 4.7
2018-Jun-10 07:59N 35°60' E 014°53'0 0.0
2018-Jun-10 07:26N 35°60' E 014°53'0 0.0
2018-Jun-10 06:53N 35°60' E 014°53'0 0.1
2018-Jun-10 06:29N 35°60' E 014°53'0 0.0
2018-Jun-10 05:59N 35°60' E 014°53'0 0.0
2018-Jun-10 02:47N 35°60' E 014°53'0 0.0
2018-Jun-10 01:14N 35°60' E 014°53'0 0.0
2018-Jun-09 21:44N 35°60' E 014°53'0 0.0
2018-Jun-09 21:20N 35°60' E 014°53'0 0.0
2018-Jun-09 20:41N 35°60' E 014°53'0 0.0
2018-Jun-09 20:26N 35°60' E 014°53'0 0.0
2018-Jun-09 18:20N 35°60' E 014°53'0 0.0
2018-Jun-09 17:59N 35°60' E 014°53'0 0.0
2018-Jun-09 17:29N 35°60' E 014°53'0 0.0
2018-Jun-09 16:59N 35°60' E 014°53'0 0.0
2018-Jun-09 16:29N 35°60' E 014°53'0 0.0
2018-Jun-09 15:59N 35°60' E 014°53'0 0.0
2018-Jun-09 15:29N 35°60' E 014°53'0 0.0
2018-Jun-09 14:29N 35°60' E 014°53'0 0.0
2018-Jun-09 13:59N 35°60' E 014°53'0 0.0
2018-Jun-09 13:02N 35°60' E 014°53'0 0.0
2018-Jun-09 12:59N 35°60' E 014°53'0 0.0
2018-Jun-09 12:23N 35°60' E 014°53'0 0.0
2018-Jun-09 11:41N 35°60' E 014°53'0 0.0
2018-Jun-09 02:49N 35°60' E 014°53'  
Track history (hours):
 
Tides and Currents Weather Stations Pressure Air Temp Water Temp Dewpoint Dewpoint Depression Visibility Wind Speed Wind Dir Waves Ship Positions

Erikoussa

Last reported at 2018-Jun-19 02:20 UTC. Time now 2018-Jun-23 14:16 UTC.
Position N 35°50' W 008°57'.

Length 229 m; draft 12.3 m.

Type: Tanker. MMSI: 237928000.

Date/timePositionNaut miles runAvg speedWind from/ knotsBaromVisibWave heightAir tempDewpointWater temp
2018-Jun-19 02:20N 35°50' W 008°57'513.7
2018-Jun-19 01:57N 35°50' W 008°51'613.7
2018-Jun-19 01:29N 35°51' W 008°43'713.7
2018-Jun-19 00:59N 35°53' W 008°35'4713.8
2018-Jun-18 21:35N 35°56' W 007°37'613.7
2018-Jun-18 21:09N 35°57' W 007°29'413.5
2018-Jun-18 20:53N 35°57' W 007°25'8913.2
2018-Jun-18 14:07N 35°58' W 005°35'213.9
2018-Jun-18 14:00N 35°59' W 005°33'713.3
2018-Jun-18 13:30N 36°01' W 005°25'612.2
2018-Jun-18 13:00N 36°05' W 005°19'2 3.6
2018-Jun-18 12:30N 36°06' W 005°18'3 4.4
2018-Jun-18 11:56N 36°07' W 005°15'19013.0
2018-Jun-17 21:18N 36°05' W 001°19'512.7
2018-Jun-17 20:57N 36°05' W 001°13'612.7
2018-Jun-17 20:29N 36°05' W 001°06'612.9
2018-Jun-17 20:00N 36°05' W 000°58'613.3
2018-Jun-17 19:30N 36°05' W 000°50'713.7
2018-Jun-17 19:00N 36°05' W 000°42'713.8
2018-Jun-17 18:30N 36°05' W 000°33'713.3
2018-Jun-17 18:01N 36°04' W 000°25'612.7
2018-Jun-17 17:30N 35°59' W 000°21'713.3
2018-Jun-17 17:00N 35°53' W 000°16'3 0.1
2018-Jun-15 17:02N 35°51' W 000°17'0 3.1
2018-Jun-15 17:00N 35°51' W 000°17'1 2.3
2018-Jun-15 16:30N 35°51' W 000°16'1 2.2
2018-Jun-15 16:00N 35°51' W 000°14'2 4.6
2018-Jun-15 15:29N 35°53' W 000°13'0 0.9
2018-Jun-15 15:00N 35°53' W 000°13'0 0.5
2018-Jun-15 14:29N 35°53' W 000°13'0 0.5
2018-Jun-15 13:39N 35°53' W 000°13'0 0.5
2018-Jun-15 13:28N 35°54' W 000°13'0 0.5
2018-Jun-15 13:00N 35°54' W 000°13'1 0.4
2018-Jun-15 11:46N 35°54' W 000°13'0 0.2
2018-Jun-15 11:23N 35°54' W 000°13'0 0.8
2018-Jun-15 10:46N 35°54' W 000°13'1 4.3
2018-Jun-15 10:30N 35°55' W 000°12'811.4
2018-Jun-15 09:47N 36°02' W 000°06'1 4.1
2018-Jun-15 09:28N 36°03' W 000°05'2 0.8
2018-Jun-15 07:03N 36°01' W 000°07'1 0.8
2018-Jun-15 05:46N 36°01' W 000°08'0 0.8
2018-Jun-15 05:30N 36°01' W 000°08'1 0.7
2018-Jun-15 04:24N 36°00' W 000°09'2 0.7
2018-Jun-15 00:56N 35°59' W 000°11'1 0.5
2018-Jun-14 22:44N 35°58' W 000°12'0 0.6
2018-Jun-14 22:30N 35°58' W 000°12'0 0.5
2018-Jun-14 21:37N 35°58' W 000°13'0 0.4
2018-Jun-14 21:30N 35°58' W 000°13'0 0.4
2018-Jun-14 20:32N 35°57' W 000°13'0 0.3
2018-Jun-14 20:14N 35°57' W 000°13'0 0.1
2018-Jun-14 19:52N 35°57' W 000°13'0 0.1
2018-Jun-14 19:20N 35°57' W 000°13'7 0.4
2018-Jun-14 03:30N 36°04' W 000°10'6 1.4
2018-Jun-13 23:30N 36°01' W 000°16'1 1.5
2018-Jun-13 23:00N 36°01' W 000°17'2 3.4
2018-Jun-13 22:29N 35°59' W 000°17'7 7.7
2018-Jun-13 21:34N 35°52' W 000°14'0 4.9
2018-Jun-13 21:30N 35°53' W 000°14'4 7.6
2018-Jun-13 21:00N 35°56' W 000°12'4 7.8
2018-Jun-13 20:30N 35°60' W 000°10'4 7.2
2018-Jun-13 20:00N 36°03' W 000°08'3 6.2
2018-Jun-13 19:30N 36°06' W 000°06'610.6
2018-Jun-13 18:59N 36°11' W 000°04'610.6
2018-Jun-13 18:24N 36°17' W 000°02'410.5
2018-Jun-13 17:59N 36°21' E 000°01'510.6
2018-Jun-13 17:29N 36°24' E 000°06'610.8
2018-Jun-13 16:58N 36°27' E 000°12'510.8
2018-Jun-13 16:30N 36°29' E 000°18'510.8
2018-Jun-13 16:00N 36°32' E 000°23'510.6
2018-Jun-13 15:30N 36°35' E 000°29'610.7
2018-Jun-13 14:55N 36°38' E 000°35'1210.8
2018-Jun-13 13:48N 36°45' E 000°48'310.7
2018-Jun-13 13:30N 36°47' E 000°51'611.9
2018-Jun-13 13:00N 36°50' E 000°57'15011.2
2018-Jun-12 23:36N 37°13' E 004°03'211.2
2018-Jun-12 23:23N 37°13' E 004°06'411.0
2018-Jun-12 23:00N 37°14' E 004°11'37010.3
2018-Jun-11 11:00N 37°10' E 011°55'511.1
2018-Jun-11 10:30N 37°08' E 012°01'711.0
2018-Jun-11 09:54N 37°05' E 012°09'410.9
2018-Jun-11 09:30N 37°03' E 012°14'611.1
2018-Jun-11 09:00N 37°00' E 012°20'611.1
2018-Jun-11 08:29N 36°58' E 012°26'511.2
2018-Jun-11 08:00N 36°56' E 012°32'611.4
2018-Jun-11 07:30N 36°53' E 012°39'611.4
2018-Jun-11 07:00N 36°51' E 012°45'611.5
2018-Jun-11 06:31N 36°48' E 012°51'611.6
2018-Jun-11 06:00N 36°45' E 012°58'104 4.7
2018-Jun-10 07:59N 35°60' E 014°53'0 0.0
2018-Jun-10 07:26N 35°60' E 014°53'0 0.0
2018-Jun-10 06:53N 35°60' E 014°53'0 0.1
2018-Jun-10 06:29N 35°60' E 014°53'0 0.0
2018-Jun-10 05:59N 35°60' E 014°53'0 0.0
2018-Jun-10 02:47N 35°60' E 014°53'0 0.0
2018-Jun-10 01:14N 35°60' E 014°53'0 0.0
2018-Jun-09 21:44N 35°60' E 014°53'0 0.0
2018-Jun-09 21:20N 35°60' E 014°53'0 0.0
2018-Jun-09 20:41N 35°60' E 014°53'0 0.0
2018-Jun-09 20:26N 35°60' E 014°53'0 0.0
2018-Jun-09 18:20N 35°60' E 014°53'0 0.0
2018-Jun-09 17:59N 35°60' E 014°53'0 0.0
2018-Jun-09 17:29N 35°60' E 014°53'0 0.0
2018-Jun-09 16:59N 35°60' E 014°53'0 0.0
2018-Jun-09 16:29N 35°60' E 014°53'0 0.0
2018-Jun-09 15:59N 35°60' E 014°53'0 0.0
2018-Jun-09 15:29N 35°60' E 014°53'0 0.0
2018-Jun-09 14:29N 35°60' E 014°53'0 0.0
2018-Jun-09 13:59N 35°60' E 014°53'0 0.0
2018-Jun-09 13:02N 35°60' E 014°53'0 0.0
2018-Jun-09 12:59N 35°60' E 014°53'0 0.0
2018-Jun-09 12:23N 35°60' E 014°53'0 0.0
2018-Jun-09 11:41N 35°60' E 014°53'0 0.0
2018-Jun-09 02:49N 35°60' E 014°53'  

Dump ship's entire track history